UKKK/IEV METAR and TAF weather

Enter ICAO airport designator
Station Type Date Time Source
UKKK METAR 2021/01/27 12:00 UTC NOAA

UKKK 271200Z 35003MPS 310V030 9999 BKN030 01/M04 Q1006 R26/190060 NOSIG


Station Type Date Time Source
UKKK Decoded METAR 2021/01/27 12:00 UTC NOAA

Kyiv, Ukraine (UKKK) 50-24N 030-34E 167M
Jan 27, 2021 - 07:00 AM EST / 2021.01.27 1200 UTC
Wind: from the N (350 degrees) at 7 MPH (6 KT) (direction variable):0
Visibility: greater than 7 mile(s):0
Sky conditions: mostly cloudy
Temperature: 33 F (1 C)
Windchill: 26 F (-3 C):1
Dew Point: 24 F (-4 C)
Relative Humidity: 69%
Pressure (altimeter): 29.71 in. Hg (1006 hPa)
ob: UKKK 271200Z 35003MPS 310V030 9999 BKN030 01/M04 Q1006 R26/190060 NOSIG
cycle: 12

Station Type Date Time Source
UKKK TAF 2021/01/27 12:00 UTC NOAA

TAF UKKK 271103Z 2712/2812 33004G09MPS 9999 OVC007 TX01/2712Z TNM02/2806Z
TEMPO 2712/2715 2000 -SN BR OVC004
FM271500 35006G11MPS 3000 -SN BR OVC005
TEMPO 2715/2812 36008G14MPS 1000 SHSN BKN002 BKN012CB

Example: see airport list